Latest Weather Observations for Horsley Park

IDN60901

Issued at 8:51 pm EDT Friday 20 January 2017 (issued every 10 minutes, with the page automatically refreshed every 10 minutes)

About weather observations | Map of Sydney area stations | Latest observations for Sydney area | Other Formats
Station Details ID: 067119 Name: HORSLEY PARK EQUESTRIAN CENTRE AWS Lat: -33.85 Lon: 150.86 Height: 100.0 m
Data from the previous 72 hours. | See also: Recent months at Horsley Park
Date/Time
EDT
Temp
°C
App
Temp
°C
Dew
Point
°C
Rel
Hum
%
Delta-T
°C
Wind Press
QNH
hPa
Press
MSL
hPa
Rain since
9am
mm
Dir  Spd
km/h
Gust
km/h
Spd
kts
Gust
kts
20/08:30pm 25.6 29.7 22.9 85 1.8 NW 6 9 3 5 - - 8.2
20/08:00pm 26.1 30.2 23.0 83 2.1 WNW 6 9 3 5 - - 8.2
20/07:30pm 26.2 30.5 23.7 86 1.7 W 7 11 4 6 - - 8.2
20/07:00pm 27.0 29.3 22.8 78 2.9 SW 15 39 8 21 - - 8.0
20/06:30pm 27.8 32.9 24.0 80 2.6 NNW 4 9 2 5 - - 7.6
20/06:00pm 28.5 32.3 22.7 71 4.0 WNW 7 13 4 7 - - 7.2
20/05:30pm 29.5 33.3 22.7 67 4.6 N 7 13 4 7 - - 6.8
20/05:00pm 28.9 33.0 22.9 70 4.1 N 6 9 3 5 - - 6.8
20/04:30pm 28.4 31.1 22.9 72 3.8 N 13 22 7 12 - - 6.8
20/04:00pm 28.4 31.3 23.1 73 3.6 N 13 22 7 12 - - 6.8
20/03:30pm 27.5 30.9 23.3 78 2.9 N 11 20 6 11 - - 6.8
20/03:00pm 27.2 28.3 22.4 75 3.2 N 20 33 11 18 - - 6.8
20/02:30pm 27.1 28.9 22.5 76 3.1 N 17 26 9 14 - - 6.8
20/02:00pm 25.4 26.7 21.7 80 2.5 N 17 28 9 15 - - 6.8
20/01:30pm 24.8 26.7 21.3 81 2.3 N 13 22 7 12 - - 6.8
20/01:00pm 22.3 25.3 20.8 91 1.0 NNE 6 11 3 6 - - 6.8
20/12:30pm 21.2 23.9 19.5 90 1.1 NNW 4 9 2 5 - - 6.2
20/12:00pm 21.4 24.3 19.1 87 1.5 NNW 2 4 1 2 - - 2.4
20/11:30am 22.4 24.5 18.0 76 2.8 NW 4 7 2 4 - - 0.2
20/11:00am 23.0 24.1 17.0 69 3.7 NNW 7 11 4 6 - - 0.0
20/10:30am 23.6 23.9 16.9 66 4.1 N 11 19 6 10 - - 0.0
20/10:00am 22.7 23.2 16.5 68 3.8 N 9 19 5 10 - - 0.0
20/09:30am 22.2 21.8 16.2 69 3.6 N 13 24 7 13 - - 0.0
20/09:00am 21.9 22.2 16.0 69 3.6 NNE 9 17 5 9 - - 0.8
20/08:30am 21.3 20.8 15.8 71 3.3 NNE 13 22 7 12 - - 0.8
20/08:00am 21.2 20.2 15.7 71 3.3 NNE 15 28 8 15 - - 0.8
20/07:30am 20.6 20.0 15.6 73 3.0 NNE 13 22 7 12 - - 0.8
20/07:00am 19.9 20.4 15.5 76 2.6 N 7 11 4 6 - - 0.8
20/06:30am 19.8 20.8 15.4 76 2.6 N 4 7 2 4 - - 0.8
20/06:00am 19.5 20.7 15.8 79 2.2 N 4 6 2 3 - - 0.8
20/05:30am 19.5 21.4 15.8 79 2.2 CALM 0 0 0 0 - - 0.8
20/05:00am 19.6 21.2 15.9 79 2.2 WNW 2 6 1 3 - - 0.8
20/04:30am 19.5 21.3 15.6 78 2.3 CALM 0 0 0 0 - - 0.8
20/04:00am 19.5 21.3 15.6 78 2.3 CALM 0 2 0 1 - - 0.8
20/03:30am 19.5 21.0 15.8 79 2.2 W 2 6 1 3 - - 0.8
20/03:00am 19.6 21.5 15.7 78 2.3 CALM 0 0 0 0 - - 0.8
20/02:30am 19.9 21.7 15.5 76 2.6 CALM 0 0 0 0 - - 0.8
20/02:00am 20.2 22.0 15.6 75 2.7 CALM 0 4 0 2 - - 0.8
20/01:30am 20.4 21.5 15.6 74 2.9 NNE 4 6 2 3 - - 0.8
20/01:00am 20.5 22.0 15.7 74 2.9 NNE 2 6 1 3 - - 0.8
20/12:30am 20.5 21.2 15.5 73 3.0 NNE 6 9 3 5 - - 0.8
20/12:00am 20.6 21.1 14.9 70 3.4 NE 6 11 3 6 - - 0.8
 
Date/Time
EDT
Temp
°C
App
Temp
°C
Dew
Point
°C
Rel
Hum
%
Delta-T
°C
Wind Press
QNH
hPa
Press
MSL
hPa
Rain since
9am
mm
Dir  Spd
km/h
Gust
km/h
Spd
kts
Gust
kts
19/11:30pm 20.6 21.2 14.3 67 3.7 NNE 4 7 2 4 - - 0.8
19/11:00pm 20.6 21.1 14.0 66 3.8 NNE 4 6 2 3 - - 0.8
19/10:30pm 20.8 20.8 14.2 66 3.9 NNE 7 13 4 7 - - 0.8
19/10:00pm 20.8 20.7 14.0 65 4.0 NNE 7 11 4 6 - - 0.8
19/09:30pm 20.8 20.7 14.0 65 4.0 NE 7 15 4 8 - - 0.8
19/09:00pm 20.7 20.2 13.9 65 3.9 NE 9 13 5 7 - - 0.8
19/08:30pm 20.7 19.8 13.6 64 4.1 NE 11 19 6 10 - - 0.8
19/08:00pm 20.6 19.7 13.8 65 3.9 ENE 11 19 6 10 - - 0.8
19/07:30pm 20.6 19.3 13.8 65 3.9 ENE 13 17 7 9 - - 0.8
19/07:00pm 20.9 20.8 13.8 64 4.1 ENE 7 15 4 8 - - 0.8
19/06:30pm 21.0 20.2 13.9 64 4.1 ENE 11 17 6 9 - - 0.8
19/06:00pm 21.1 19.7 13.5 62 4.4 ENE 13 20 7 11 - - 0.8
19/05:30pm 21.2 19.9 13.6 62 4.4 ENE 13 22 7 12 - - 0.8
19/05:00pm 21.2 19.1 13.6 62 4.4 ENE 17 24 9 13 - - 0.8
19/04:30pm 21.2 20.0 13.9 63 4.2 ENE 13 24 7 13 - - 0.8
19/04:00pm 21.3 20.3 14.5 65 4.0 E 13 20 7 11 - - 0.8
19/03:30pm 20.9 20.6 14.3 66 3.9 E 9 17 5 9 - - 0.8
19/03:00pm 21.1 20.5 14.7 67 3.8 ENE 11 20 6 11 - - 0.8
19/02:30pm 20.4 20.0 15.2 72 3.1 ENE 11 19 6 10 - - 0.8
19/02:00pm 19.4 20.3 16.6 84 1.7 ENE 7 15 4 8 - - 0.8
19/01:30pm 19.0 18.6 16.2 84 1.7 ENE 13 20 7 11 - - 0.8
19/01:00pm 18.4 19.0 16.9 91 0.9 ESE 9 15 5 8 - - 0.8
19/12:30pm 18.7 19.0 16.1 85 1.6 ENE 9 13 5 7 - - 0.0
19/12:00pm 18.4 18.8 16.2 87 1.3 ESE 9 13 5 7 - - 0.0
19/11:30am 20.0 19.4 15.6 76 2.6 SE 13 19 7 10 - - 0.0
19/11:00am 20.0 19.5 14.8 72 3.1 ESE 11 17 6 9 - - 0.0
19/10:30am 20.2 19.8 14.1 68 3.5 SE 9 17 5 9 - - 0.0
19/10:00am 20.0 19.0 13.5 66 3.7 SSE 11 17 6 9 - - 0.0
19/09:30am 20.2 19.9 13.2 64 4.0 SSW 7 11 4 6 - - 0.0
19/09:00am 19.8 19.5 13.3 66 3.7 SW 7 13 4 7 - - 0.0
19/08:30am 19.5 18.9 13.4 68 3.5 SSW 9 13 5 7 - - 0.0
19/08:00am 19.1 18.1 13.3 69 3.3 SW 11 15 6 8 - - 0.0
19/07:30am 18.7 18.1 13.6 72 2.9 WSW 9 15 5 8 - - 0.0
19/07:00am 18.4 17.9 13.7 74 2.7 WSW 9 13 5 7 - - 0.0
19/06:30am 18.2 18.1 13.9 76 2.5 WSW 7 11 4 6 - - 0.0
19/06:00am 18.1 17.7 14.0 77 2.4 WSW 9 15 5 8 - - 0.0
19/05:30am 18.0 18.0 14.1 78 2.2 WSW 7 13 4 7 - - 0.0
19/05:00am 18.1 17.7 14.2 78 2.2 WSW 9 15 5 8 - - 0.0
19/04:30am 18.3 18.5 14.6 79 2.1 WSW 7 13 4 7 - - 0.0
19/04:00am 18.4 17.9 13.9 75 2.6 SW 9 13 5 7 - - 0.0
19/03:30am 18.4 17.6 14.1 76 2.5 SW 11 15 6 8 - - 0.0
19/03:00am 18.3 17.9 14.2 77 2.4 SW 9 15 5 8 - - 0.0
19/02:30am 18.3 18.5 14.6 79 2.1 SW 7 11 4 6 - - 0.0
19/02:00am 18.4 18.6 14.7 79 2.2 SW 7 11 4 6 - - 0.0
19/01:30am 18.2 18.4 14.7 80 2.0 S 7 9 4 5 - - 0.0
19/01:00am 17.9 17.9 15.2 84 1.6 SSE 9 15 5 8 - - 0.0
19/12:30am 17.5 16.2 15.8 90 1.0 SE 17 22 9 12 - - 0.0
19/12:00am 18.8 16.8 14.9 78 2.3 SSE 19 32 10 17 - - 0.0
 
Date/Time
EDT
Temp
°C
App
Temp
°C
Dew
Point
°C
Rel
Hum
%
Delta-T
°C
Wind Press
QNH
hPa
Press
MSL
hPa
Rain since
9am
mm
Dir  Spd
km/h
Gust
km/h
Spd
kts
Gust
kts
18/11:30pm 19.4 19.0 15.1 76 2.5 SSE 11 19 6 10 - - 0.0
18/11:00pm 20.0 19.2 15.2 74 2.8 S 13 20 7 11 - - 0.0
18/10:30pm 20.8 20.0 15.1 70 3.4 SSE 13 19 7 10 - - 0.0
18/10:00pm 20.9 20.5 15.2 70 3.4 SE 11 20 6 11 - - 0.0
18/09:30pm 20.8 19.7 15.4 71 3.2 SSE 15 24 8 13 - - 0.0
18/09:00pm 21.1 20.5 15.6 71 3.3 SSE 13 22 7 12 - - 0.0
18/08:30pm 21.6 21.8 15.7 69 3.5 SSE 9 17 5 9 - - 0.0
18/08:00pm 21.6 20.6 15.7 69 3.5 SSE 15 28 8 15 - - 0.0
18/07:30pm 21.8 20.3 15.4 67 3.8 SSE 17 26 9 14 - - 0.0
18/07:00pm 22.1 20.3 15.9 68 3.7 SSE 20 32 11 17 - - 0.0
18/06:30pm 22.7 21.0 16.3 67 3.9 SSE 20 35 11 19 - - 0.0
18/06:00pm 23.8 21.9 16.6 64 4.4 SSE 22 33 12 18 - - 0.0
18/05:30pm 24.3 22.4 16.8 63 4.6 SE 22 35 12 19 - - 0.0
18/05:00pm 25.2 21.9 16.9 60 5.2 SE 30 41 16 22 - - 0.0
18/04:30pm 26.8 24.2 17.8 57 5.7 SE 28 41 15 22 - - 0.0
18/04:00pm 28.3 26.0 17.5 52 6.8 SE 26 43 14 23 - - 0.0
18/03:30pm 29.0 24.4 16.2 46 8.0 SE 35 52 19 28 - - 0.0
18/03:19pm 29.9 26.1 16.7 45 8.3 SE 32 50 17 27 - - 0.0
18/03:00pm 29.9 25.4 16.3 43 8.5 SE 35 46 19 25 - - 0.0
18/02:30pm 30.9 26.7 16.1 41 9.3 SE 33 46 18 25 - - 0.0
18/02:00pm 32.0 28.4 16.3 39 9.9 ESE 30 41 16 22 - - 0.0
18/01:30pm 33.4 30.7 16.7 36 10.6 ESE 26 39 14 21 - - 0.0
18/01:00pm 35.4 32.7 15.7 31 12.4 E 24 35 13 19 - - 0.0
18/12:54pm 34.7 33.1 15.1 31 12.3 E 17 32 9 17 - - 0.0
18/12:30pm 39.7 36.4 11.7 19 17.0 NW 20 35 11 19 - - 0.0
18/12:00pm 40.2 36.4 11.3 18 17.5 WNW 22 43 12 23 - - 0.0
18/11:30am 40.0 36.9 13.5 21 16.5 NW 22 39 12 21 - - 0.0
18/11:00am 39.3 36.3 13.7 22 15.9 NW 22 37 12 20 - - 0.0
18/10:30am 38.6 36.0 13.8 23 15.4 NW 20 33 11 18 - - 0.0
18/10:00am 38.4 36.8 14.9 25 14.8 NW 17 30 9 16 - - 0.0
18/09:30am 37.4 34.4 14.7 26 14.2 WNW 24 39 13 21 - - 0.0
18/09:00am 37.5 35.4 15.3 26 14.0 WNW 20 35 11 19 - - 0.0
18/08:30am 36.4 33.8 15.0 28 13.4 WNW 22 37 12 20 - - 0.0
18/08:00am 35.3 34.9 15.1 30 12.7 NW 11 28 6 15 - - 0.0
18/07:30am 33.5 34.2 15.5 34 11.3 NNW 6 13 3 7 - - 0.0
18/07:00am 31.5 32.6 15.5 38 9.9 NNW 4 9 2 5 - - 0.0
18/06:30am 29.9 31.8 16.7 45 8.3 NNW 2 7 1 4 - - 0.0
18/06:00am 28.8 31.1 16.7 48 7.6 CALM 0 2 0 1 - - 0.0
18/05:30am 28.9 31.0 17.1 49 7.4 N 2 7 1 4 - - 0.0
18/05:00am 28.4 31.0 17.6 52 6.9 CALM 0 4 0 2 - - 0.0
18/04:30am 28.4 31.2 17.9 53 6.7 CALM 0 2 0 1 - - 0.0
18/04:00am 28.1 31.0 18.2 55 6.3 CALM 0 0 0 0 - - 0.0
18/03:30am 28.2 31.1 18.3 55 6.3 CALM 0 0 0 0 - - 0.0
18/03:00am 28.0 31.3 19.0 58 5.8 CALM 0 2 0 1 - - 0.0
18/02:30am 27.5 30.7 18.8 59 5.6 CALM 0 0 0 0 - - 0.0
18/02:00am 27.1 30.3 18.9 61 5.3 CALM 0 0 0 0 - - 0.0
18/01:30am 26.7 30.2 19.6 65 4.6 CALM 0 0 0 0 - - 0.0
18/01:00am 27.2 30.6 19.3 62 5.1 CALM 0 0 0 0 - - 0.0
18/12:30am 28.4 31.7 19.1 57 6.0 CALM 0 0 0 0 - - 0.0
18/12:00am 29.3 32.6 19.0 53 6.7 CALM 0 0 0 0 - - 0.0
 
Date/Time
EDT
Temp
°C
App
Temp
°C
Dew
Point
°C
Rel
Hum
%
Delta-T
°C
Wind Press
QNH
hPa
Press
MSL
hPa
Rain since
9am
mm
Dir  Spd
km/h
Gust
km/h
Spd
kts
Gust
kts
17/11:30pm 29.9 33.0 18.7 51 7.3 CALM 0 2 0 1 - - 0.0
17/11:00pm 30.8 33.0 16.4 42 9.1 CALM 0 0 0 0 - - 0.0
17/10:30pm 31.5 33.5 15.9 39 9.8 CALM 0 0 0 0 - - 0.0
17/10:00pm 31.8 33.5 15.3 37 10.2 CALM 0 0 0 0 - - 0.0
17/09:30pm 31.9 33.7 15.4 37 10.3 CALM 0 0 0 0 - - 0.0
17/09:00pm 33.7 34.6 15.2 33 11.5 S 4 9 2 5 - - 0.0

Latest Capital City Observations: Canberra | Sydney | Melbourne | Brisbane | Adelaide | Perth | Hobart | Darwin

Other Formats:

Comma delimited format used in spreadsheet applications
http://www.bom.gov.au/fwo/IDN60901/IDN60901.94760.axf

JavaScript Object Notation format (JSON) in row-major order
http://www.bom.gov.au/fwo/IDN60901/IDN60901.94760.json